sensor_id;sensor_type;location;lat;lon;timestamp;P1;durP1;ratioP1;P2;durP2;ratioP2
12112;SDS011;6120;52.250;8.478;2022-10-22T00:01:00;11.52;;;4.85;;
12112;SDS011;6120;52.250;8.478;2022-10-22T00:03:26;7.30;;;4.25;;
12112;SDS011;6120;52.250;8.478;2022-10-22T00:05:53;7.50;;;4.30;;
12112;SDS011;6120;52.250;8.478;2022-10-22T00:08:20;6.43;;;4.20;;
12112;SDS011;6120;52.250;8.478;2022-10-22T00:10:46;5.22;;;3.80;;
12112;SDS011;6120;52.250;8.478;2022-10-22T00:13:13;6.95;;;3.70;;
12112;SDS011;6120;52.250;8.478;2022-10-22T00:15:40;5.35;;;3.70;;
12112;SDS011;6120;52.250;8.478;2022-10-22T00:18:06;5.95;;;4.05;;
12112;SDS011;6120;52.250;8.478;2022-10-22T00:20:33;5.72;;;3.65;;
12112;SDS011;6120;52.250;8.478;2022-10-22T00:23:00;6.53;;;4.15;;
12112;SDS011;6120;52.250;8.478;2022-10-22T00:25:26;5.90;;;3.92;;
12112;SDS011;6120;52.250;8.478;2022-10-22T00:27:53;8.00;;;4.13;;
12112;SDS011;6120;52.250;8.478;2022-10-22T00:30:20;7.38;;;4.10;;
12112;SDS011;6120;52.250;8.478;2022-10-22T00:32:46;6.22;;;4.10;;
12112;SDS011;6120;52.250;8.478;2022-10-22T00:35:13;7.45;;;4.07;;
12112;SDS011;6120;52.250;8.478;2022-10-22T00:37:40;8.27;;;4.57;;
12112;SDS011;6120;52.250;8.478;2022-10-22T00:40:06;4.78;;;3.47;;
12112;SDS011;6120;52.250;8.478;2022-10-22T00:42:34;7.13;;;4.25;;
12112;SDS011;6120;52.250;8.478;2022-10-22T00:47:38;6.72;;;4.45;;
12112;SDS011;6120;52.250;8.478;2022-10-22T00:50:08;5.43;;;3.50;;
12112;SDS011;6120;52.250;8.478;2022-10-22T00:52:40;9.43;;;4.47;;
12112;SDS011;6120;52.250;8.478;2022-10-22T00:55:07;5.07;;;3.67;;
12112;SDS011;6120;52.250;8.478;2022-10-22T00:57:34;8.57;;;4.68;;
12112;SDS011;6120;52.250;8.478;2022-10-22T01:00:01;7.45;;;4.20;;
12112;SDS011;6120;52.250;8.478;2022-10-22T01:02:30;6.65;;;3.90;;
12112;SDS011;6120;52.250;8.478;2022-10-22T01:04:56;6.05;;;4.13;;
12112;SDS011;6120;52.250;8.478;2022-10-22T01:07:23;6.97;;;4.32;;
12112;SDS011;6120;52.250;8.478;2022-10-22T01:18:30;5.35;;;3.80;;
12112;SDS011;6120;52.250;8.478;2022-10-22T01:21:08;9.75;;;4.80;;
12112;SDS011;6120;52.250;8.478;2022-10-22T01:32:03;7.32;;;4.97;;
12112;SDS011;6120;52.250;8.478;2022-10-22T01:34:36;7.38;;;5.10;;
12112;SDS011;6120;52.250;8.478;2022-10-22T01:37:05;7.40;;;5.28;;
12112;SDS011;6120;52.250;8.478;2022-10-22T01:39:32;6.95;;;4.85;;
12112;SDS011;6120;52.250;8.478;2022-10-22T01:41:59;7.43;;;5.05;;
12112;SDS011;6120;52.250;8.478;2022-10-22T01:44:30;7.80;;;5.05;;
12112;SDS011;6120;52.250;8.478;2022-10-22T01:47:13;7.78;;;4.50;;
12112;SDS011;6120;52.250;8.478;2022-10-22T01:52:25;6.03;;;3.50;;
12112;SDS011;6120;52.250;8.478;2022-10-22T01:55:19;4.93;;;3.63;;
12112;SDS011;6120;52.250;8.478;2022-10-22T01:57:58;5.18;;;3.67;;
12112;SDS011;6120;52.250;8.478;2022-10-22T02:00:35;10.23;;;3.70;;
12112;SDS011;6120;52.250;8.478;2022-10-22T02:08:49;7.03;;;4.72;;
12112;SDS011;6120;52.250;8.478;2022-10-22T02:10:56;7.85;;;4.60;;
12112;SDS011;6120;52.250;8.478;2022-10-22T02:13:26;8.27;;;4.40;;
12112;SDS011;6120;52.250;8.478;2022-10-22T02:15:55;5.43;;;4.40;;
12112;SDS011;6120;52.250;8.478;2022-10-22T02:18:23;9.10;;;4.22;;
12112;SDS011;6120;52.250;8.478;2022-10-22T02:20:53;9.30;;;3.85;;
12112;SDS011;6120;52.250;8.478;2022-10-22T02:23:21;5.57;;;4.03;;
12112;SDS011;6120;52.250;8.478;2022-10-22T02:25:48;7.00;;;4.68;;
12112;SDS011;6120;52.250;8.478;2022-10-22T02:28:31;6.00;;;4.20;;
12112;SDS011;6120;52.250;8.478;2022-10-22T02:31:01;5.85;;;4.15;;
12112;SDS011;6120;52.250;8.478;2022-10-22T02:33:41;6.63;;;4.63;;
12112;SDS011;6120;52.250;8.478;2022-10-22T02:36:13;7.00;;;4.28;;
12112;SDS011;6120;52.250;8.478;2022-10-22T02:38:41;8.52;;;5.15;;
12112;SDS011;6120;52.250;8.478;2022-10-22T02:41:08;7.90;;;4.38;;
12112;SDS011;6120;52.250;8.478;2022-10-22T02:43:53;6.47;;;4.35;;
12112;SDS011;6120;52.250;8.478;2022-10-22T02:46:21;8.35;;;4.28;;
12112;SDS011;6120;52.250;8.478;2022-10-22T02:48:48;6.18;;;4.20;;
12112;SDS011;6120;52.250;8.478;2022-10-22T02:51:15;6.93;;;3.92;;
12112;SDS011;6120;52.250;8.478;2022-10-22T02:53:42;6.38;;;4.13;;
12112;SDS011;6120;52.250;8.478;2022-10-22T02:56:08;6.75;;;4.20;;
12112;SDS011;6120;52.250;8.478;2022-10-22T02:58:35;7.57;;;4.18;;
12112;SDS011;6120;52.250;8.478;2022-10-22T03:01:01;7.07;;;3.78;;
12112;SDS011;6120;52.250;8.478;2022-10-22T03:03:28;6.57;;;3.63;;
12112;SDS011;6120;52.250;8.478;2022-10-22T03:05:55;6.68;;;3.95;;
12112;SDS011;6120;52.250;8.478;2022-10-22T03:08:21;10.63;;;5.22;;
12112;SDS011;6120;52.250;8.478;2022-10-22T03:10:48;6.22;;;4.25;;
12112;SDS011;6120;52.250;8.478;2022-10-22T03:13:14;5.45;;;3.75;;
12112;SDS011;6120;52.250;8.478;2022-10-22T03:15:41;6.57;;;3.92;;
12112;SDS011;6120;52.250;8.478;2022-10-22T03:18:08;6.90;;;4.68;;
12112;SDS011;6120;52.250;8.478;2022-10-22T03:20:34;9.05;;;4.10;;
12112;SDS011;6120;52.250;8.478;2022-10-22T03:23:01;5.28;;;3.97;;
12112;SDS011;6120;52.250;8.478;2022-10-22T03:25:28;5.93;;;3.83;;
12112;SDS011;6120;52.250;8.478;2022-10-22T03:28:04;7.75;;;4.10;;
12112;SDS011;6120;52.250;8.478;2022-10-22T03:30:32;7.88;;;4.18;;
12112;SDS011;6120;52.250;8.478;2022-10-22T03:32:59;7.03;;;4.25;;
12112;SDS011;6120;52.250;8.478;2022-10-22T03:35:26;6.78;;;4.03;;
12112;SDS011;6120;52.250;8.478;2022-10-22T03:37:52;6.60;;;3.70;;
12112;SDS011;6120;52.250;8.478;2022-10-22T03:40:19;6.53;;;4.40;;
12112;SDS011;6120;52.250;8.478;2022-10-22T03:42:46;6.38;;;4.55;;
12112;SDS011;6120;52.250;8.478;2022-10-22T03:45:13;7.60;;;4.70;;
12112;SDS011;6120;52.250;8.478;2022-10-22T03:47:39;7.13;;;4.82;;
12112;SDS011;6120;52.250;8.478;2022-10-22T03:50:07;6.32;;;4.10;;
12112;SDS011;6120;52.250;8.478;2022-10-22T03:52:34;6.82;;;4.18;;
12112;SDS011;6120;52.250;8.478;2022-10-22T03:55:07;8.07;;;3.90;;
12112;SDS011;6120;52.250;8.478;2022-10-22T03:57:34;7.78;;;4.38;;
12112;SDS011;6120;52.250;8.478;2022-10-22T04:00:00;15.48;;;5.00;;
12112;SDS011;6120;52.250;8.478;2022-10-22T04:02:27;7.53;;;5.10;;
12112;SDS011;6120;52.250;8.478;2022-10-22T04:04:54;6.78;;;4.63;;
12112;SDS011;6120;52.250;8.478;2022-10-22T04:07:20;7.65;;;4.53;;
12112;SDS011;6120;52.250;8.478;2022-10-22T04:09:47;7.57;;;4.93;;
12112;SDS011;6120;52.250;8.478;2022-10-22T04:12:13;5.28;;;4.28;;
12112;SDS011;6120;52.250;8.478;2022-10-22T04:14:40;8.23;;;4.68;;
12112;SDS011;6120;52.250;8.478;2022-10-22T04:17:07;6.70;;;4.50;;
12112;SDS011;6120;52.250;8.478;2022-10-22T04:19:33;6.50;;;4.88;;
12112;SDS011;6120;52.250;8.478;2022-10-22T04:22:00;8.13;;;5.45;;
12112;SDS011;6120;52.250;8.478;2022-10-22T04:24:28;8.13;;;5.50;;
12112;SDS011;6120;52.250;8.478;2022-10-22T04:26:56;6.57;;;4.50;;
12112;SDS011;6120;52.250;8.478;2022-10-22T04:29:23;7.65;;;5.25;;
12112;SDS011;6120;52.250;8.478;2022-10-22T04:31:50;8.32;;;5.07;;
12112;SDS011;6120;52.250;8.478;2022-10-22T04:34:17;7.55;;;4.80;;
12112;SDS011;6120;52.250;8.478;2022-10-22T04:36:43;9.07;;;5.07;;
12112;SDS011;6120;52.250;8.478;2022-10-22T04:39:10;6.97;;;4.90;;
12112;SDS011;6120;52.250;8.478;2022-10-22T04:41:37;9.23;;;4.53;;
12112;SDS011;6120;52.250;8.478;2022-10-22T04:44:04;12.32;;;4.97;;
12112;SDS011;6120;52.250;8.478;2022-10-22T04:46:38;10.32;;;4.75;;
12112;SDS011;6120;52.250;8.478;2022-10-22T04:49:05;8.05;;;5.65;;
12112;SDS011;6120;52.250;8.478;2022-10-22T04:51:31;9.93;;;5.50;;
12112;SDS011;6120;52.250;8.478;2022-10-22T04:53:58;8.38;;;5.30;;
12112;SDS011;6120;52.250;8.478;2022-10-22T04:56:27;7.63;;;4.40;;
12112;SDS011;6120;52.250;8.478;2022-10-22T04:58:56;8.52;;;4.40;;
12112;SDS011;6120;52.250;8.478;2022-10-22T05:01:25;11.80;;;5.72;;
12112;SDS011;6120;52.250;8.478;2022-10-22T05:03:54;11.68;;;5.88;;
12112;SDS011;6120;52.250;8.478;2022-10-22T05:08:53;9.60;;;5.63;;
12112;SDS011;6120;52.250;8.478;2022-10-22T05:11:22;9.35;;;5.53;;
12112;SDS011;6120;52.250;8.478;2022-10-22T05:13:50;10.05;;;5.88;;
12112;SDS011;6120;52.250;8.478;2022-10-22T05:16:17;7.00;;;4.97;;
12112;SDS011;6120;52.250;8.478;2022-10-22T05:18:43;8.88;;;5.70;;
12112;SDS011;6120;52.250;8.478;2022-10-22T05:21:11;7.63;;;5.30;;
12112;SDS011;6120;52.250;8.478;2022-10-22T05:23:39;15.52;;;5.47;;
12112;SDS011;6120;52.250;8.478;2022-10-22T05:26:06;7.47;;;4.72;;
12112;SDS011;6120;52.250;8.478;2022-10-22T05:31:02;8.27;;;4.95;;
12112;SDS011;6120;52.250;8.478;2022-10-22T05:33:30;7.55;;;4.68;;
12112;SDS011;6120;52.250;8.478;2022-10-22T05:35:57;12.90;;;5.05;;
12112;SDS011;6120;52.250;8.478;2022-10-22T05:38:24;8.88;;;4.80;;
12112;SDS011;6120;52.250;8.478;2022-10-22T05:45:56;5.63;;;4.10;;
12112;SDS011;6120;52.250;8.478;2022-10-22T05:48:28;6.57;;;4.30;;
12112;SDS011;6120;52.250;8.478;2022-10-22T05:50:55;6.70;;;4.38;;
12112;SDS011;6120;52.250;8.478;2022-10-22T05:53:21;7.97;;;4.63;;
12112;SDS011;6120;52.250;8.478;2022-10-22T05:55:48;6.53;;;4.25;;
12112;SDS011;6120;52.250;8.478;2022-10-22T05:58:15;9.13;;;4.30;;
12112;SDS011;6120;52.250;8.478;2022-10-22T06:00:41;7.07;;;4.53;;
12112;SDS011;6120;52.250;8.478;2022-10-22T06:03:08;8.52;;;4.25;;
12112;SDS011;6120;52.250;8.478;2022-10-22T06:05:35;6.32;;;4.22;;
12112;SDS011;6120;52.250;8.478;2022-10-22T06:08:02;7.45;;;4.07;;
12112;SDS011;6120;52.250;8.478;2022-10-22T06:10:29;6.55;;;4.25;;
12112;SDS011;6120;52.250;8.478;2022-10-22T06:12:56;8.57;;;4.53;;
12112;SDS011;6120;52.250;8.478;2022-10-22T06:15:23;8.32;;;3.95;;
12112;SDS011;6120;52.250;8.478;2022-10-22T06:17:49;6.68;;;4.30;;
12112;SDS011;6120;52.250;8.478;2022-10-22T06:20:16;9.18;;;4.63;;
12112;SDS011;6120;52.250;8.478;2022-10-22T06:22:42;6.78;;;4.60;;
12112;SDS011;6120;52.250;8.478;2022-10-22T06:25:09;6.80;;;4.40;;
12112;SDS011;6120;52.250;8.478;2022-10-22T06:27:37;12.45;;;4.75;;
12112;SDS011;6120;52.250;8.478;2022-10-22T06:30:04;7.68;;;5.25;;
12112;SDS011;6120;52.250;8.478;2022-10-22T06:32:31;11.25;;;4.55;;
12112;SDS011;6120;52.250;8.478;2022-10-22T06:34:57;7.78;;;4.60;;
12112;SDS011;6120;52.250;8.478;2022-10-22T06:37:24;9.75;;;4.75;;
12112;SDS011;6120;52.250;8.478;2022-10-22T06:39:51;7.10;;;4.30;;
12112;SDS011;6120;52.250;8.478;2022-10-22T06:42:17;7.00;;;4.22;;
12112;SDS011;6120;52.250;8.478;2022-10-22T06:44:44;6.40;;;3.70;;
12112;SDS011;6120;52.250;8.478;2022-10-22T06:47:10;8.70;;;4.88;;
12112;SDS011;6120;52.250;8.478;2022-10-22T06:49:37;6.95;;;4.70;;
12112;SDS011;6120;52.250;8.478;2022-10-22T06:52:04;7.35;;;3.95;;
12112;SDS011;6120;52.250;8.478;2022-10-22T06:54:30;6.15;;;4.43;;
12112;SDS011;6120;52.250;8.478;2022-10-22T06:56:57;7.43;;;4.15;;
12112;SDS011;6120;52.250;8.478;2022-10-22T06:59:23;6.45;;;4.40;;
12112;SDS011;6120;52.250;8.478;2022-10-22T07:01:50;6.03;;;4.38;;
12112;SDS011;6120;52.250;8.478;2022-10-22T07:04:17;6.97;;;4.75;;
12112;SDS011;6120;52.250;8.478;2022-10-22T07:06:44;6.80;;;4.80;;
12112;SDS011;6120;52.250;8.478;2022-10-22T07:09:10;6.82;;;3.75;;
12112;SDS011;6120;52.250;8.478;2022-10-22T07:11:41;8.65;;;4.68;;
12112;SDS011;6120;52.250;8.478;2022-10-22T07:14:09;8.25;;;5.40;;
12112;SDS011;6120;52.250;8.478;2022-10-22T07:16:36;7.63;;;4.75;;
12112;SDS011;6120;52.250;8.478;2022-10-22T07:19:03;7.20;;;5.55;;
12112;SDS011;6120;52.250;8.478;2022-10-22T07:21:30;8.27;;;5.10;;
12112;SDS011;6120;52.250;8.478;2022-10-22T07:23:57;8.02;;;4.90;;
12112;SDS011;6120;52.250;8.478;2022-10-22T07:26:24;8.02;;;4.63;;
12112;SDS011;6120;52.250;8.478;2022-10-22T07:28:53;7.72;;;5.20;;
12112;SDS011;6120;52.250;8.478;2022-10-22T07:31:20;7.40;;;4.90;;
12112;SDS011;6120;52.250;8.478;2022-10-22T07:33:46;7.45;;;5.13;;
12112;SDS011;6120;52.250;8.478;2022-10-22T07:36:14;9.90;;;5.72;;
12112;SDS011;6120;52.250;8.478;2022-10-22T07:38:45;8.57;;;5.10;;
12112;SDS011;6120;52.250;8.478;2022-10-22T07:41:13;9.85;;;6.00;;
12112;SDS011;6120;52.250;8.478;2022-10-22T07:43:41;9.07;;;5.55;;
12112;SDS011;6120;52.250;8.478;2022-10-22T07:46:08;9.50;;;5.32;;
12112;SDS011;6120;52.250;8.478;2022-10-22T07:48:34;8.02;;;5.07;;
12112;SDS011;6120;52.250;8.478;2022-10-22T07:51:01;16.70;;;5.65;;
12112;SDS011;6120;52.250;8.478;2022-10-22T07:53:28;11.18;;;5.40;;
12112;SDS011;6120;52.250;8.478;2022-10-22T07:55:55;9.40;;;6.30;;
12112;SDS011;6120;52.250;8.478;2022-10-22T07:58:22;8.60;;;6.05;;
12112;SDS011;6120;52.250;8.478;2022-10-22T08:00:49;8.18;;;5.65;;
12112;SDS011;6120;52.250;8.478;2022-10-22T08:03:16;9.10;;;5.93;;
12112;SDS011;6120;52.250;8.478;2022-10-22T08:05:43;11.23;;;5.80;;
12112;SDS011;6120;52.250;8.478;2022-10-22T08:08:11;9.43;;;6.38;;
12112;SDS011;6120;52.250;8.478;2022-10-22T08:10:38;7.93;;;5.38;;
12112;SDS011;6120;52.250;8.478;2022-10-22T08:13:05;13.05;;;5.88;;
12112;SDS011;6120;52.250;8.478;2022-10-22T08:15:33;8.37;;;5.60;;
12112;SDS011;6120;52.250;8.478;2022-10-22T08:18:00;8.95;;;4.93;;
12112;SDS011;6120;52.250;8.478;2022-10-22T08:20:27;9.20;;;5.60;;
12112;SDS011;6120;52.250;8.478;2022-10-22T08:22:53;8.93;;;5.18;;
12112;SDS011;6120;52.250;8.478;2022-10-22T08:25:20;9.73;;;5.38;;
12112;SDS011;6120;52.250;8.478;2022-10-22T08:27:46;9.18;;;5.55;;
12112;SDS011;6120;52.250;8.478;2022-10-22T08:30:13;7.43;;;5.43;;
12112;SDS011;6120;52.250;8.478;2022-10-22T08:32:40;15.43;;;6.20;;
12112;SDS011;6120;52.250;8.478;2022-10-22T08:35:07;8.73;;;5.13;;
12112;SDS011;6120;52.250;8.478;2022-10-22T08:37:34;9.45;;;6.18;;
12112;SDS011;6120;52.250;8.478;2022-10-22T08:40:01;8.57;;;6.10;;
12112;SDS011;6120;52.250;8.478;2022-10-22T08:50:48;8.30;;;4.95;;
12112;SDS011;6120;52.250;8.478;2022-10-22T08:53:19;8.13;;;4.88;;
12112;SDS011;6120;52.250;8.478;2022-10-22T08:55:47;8.90;;;5.05;;
12112;SDS011;6120;52.250;8.478;2022-10-22T08:59:03;7.30;;;4.95;;
12112;SDS011;6120;52.250;8.478;2022-10-22T09:01:35;10.55;;;4.85;;
12112;SDS011;6120;52.250;8.478;2022-10-22T09:04:11;12.15;;;5.57;;
12112;SDS011;6120;52.250;8.478;2022-10-22T09:06:42;34.70;;;6.50;;
12112;SDS011;6120;52.250;8.478;2022-10-22T09:09:16;11.55;;;5.18;;
12112;SDS011;6120;52.250;8.478;2022-10-22T09:11:47;7.82;;;4.55;;
12112;SDS011;6120;52.250;8.478;2022-10-22T09:14:17;9.10;;;5.25;;
12112;SDS011;6120;52.250;8.478;2022-10-22T09:22:11;9.88;;;3.90;;
12112;SDS011;6120;52.250;8.478;2022-10-22T09:24:52;12.27;;;3.80;;
12112;SDS011;6120;52.250;8.478;2022-10-22T09:27:26;9.48;;;3.40;;
12112;SDS011;6120;52.250;8.478;2022-10-22T09:29:55;5.05;;;3.30;;
12112;SDS011;6120;52.250;8.478;2022-10-22T09:32:22;8.15;;;3.75;;
12112;SDS011;6120;52.250;8.478;2022-10-22T09:34:49;6.07;;;3.80;;
12112;SDS011;6120;52.250;8.478;2022-10-22T09:37:17;7.13;;;3.95;;
12112;SDS011;6120;52.250;8.478;2022-10-22T09:39:46;11.73;;;3.20;;
12112;SDS011;6120;52.250;8.478;2022-10-22T09:42:15;9.95;;;3.50;;
12112;SDS011;6120;52.250;8.478;2022-10-22T09:47:30;11.38;;;3.63;;
12112;SDS011;6120;52.250;8.478;2022-10-22T09:53:20;8.55;;;3.80;;
12112;SDS011;6120;52.250;8.478;2022-10-22T09:55:51;13.90;;;3.58;;
12112;SDS011;6120;52.250;8.478;2022-10-22T09:58:26;5.50;;;2.88;;
12112;SDS011;6120;52.250;8.478;2022-10-22T10:00:57;9.38;;;4.22;;
12112;SDS011;6120;52.250;8.478;2022-10-22T10:03:26;11.15;;;3.95;;
12112;SDS011;6120;52.250;8.478;2022-10-22T10:05:56;16.15;;;4.07;;
12112;SDS011;6120;52.250;8.478;2022-10-22T10:08:30;12.23;;;4.38;;
12112;SDS011;6120;52.250;8.478;2022-10-22T10:11:41;13.55;;;3.88;;
12112;SDS011;6120;52.250;8.478;2022-10-22T10:19:29;12.25;;;4.00;;
12112;SDS011;6120;52.250;8.478;2022-10-22T10:27:42;10.10;;;4.40;;
12112;SDS011;6120;52.250;8.478;2022-10-22T10:30:13;12.77;;;4.68;;
12112;SDS011;6120;52.250;8.478;2022-10-22T10:35:41;12.55;;;5.25;;
12112;SDS011;6120;52.250;8.478;2022-10-22T10:38:24;12.73;;;4.05;;
12112;SDS011;6120;52.250;8.478;2022-10-22T10:49:08;10.23;;;2.55;;
12112;SDS011;6120;52.250;8.478;2022-10-22T10:56:40;6.30;;;2.28;;
12112;SDS011;6120;52.250;8.478;2022-10-22T11:07:16;11.85;;;2.50;;
12112;SDS011;6120;52.250;8.478;2022-10-22T11:10:01;10.02;;;2.17;;
12112;SDS011;6120;52.250;8.478;2022-10-22T11:12:35;23.17;;;3.50;;
12112;SDS011;6120;52.250;8.478;2022-10-22T11:15:15;8.57;;;2.50;;
12112;SDS011;6120;52.250;8.478;2022-10-22T11:21:13;9.40;;;2.83;;
12112;SDS011;6120;52.250;8.478;2022-10-22T11:23:54;9.55;;;2.75;;
12112;SDS011;6120;52.250;8.478;2022-10-22T11:26:48;12.25;;;2.60;;
12112;SDS011;6120;52.250;8.478;2022-10-22T11:29:21;6.50;;;2.40;;
12112;SDS011;6120;52.250;8.478;2022-10-22T11:31:54;6.15;;;2.90;;
12112;SDS011;6120;52.250;8.478;2022-10-22T11:34:30;7.70;;;2.65;;
12112;SDS011;6120;52.250;8.478;2022-10-22T11:37:01;4.53;;;2.22;;
12112;SDS011;6120;52.250;8.478;2022-10-22T11:42:21;7.20;;;2.30;;
12112;SDS011;6120;52.250;8.478;2022-10-22T11:44:59;6.32;;;2.38;;
12112;SDS011;6120;52.250;8.478;2022-10-22T11:47:33;7.05;;;2.40;;
12112;SDS011;6120;52.250;8.478;2022-10-22T11:53:04;13.57;;;2.15;;
12112;SDS011;6120;52.250;8.478;2022-10-22T12:03:39;8.10;;;2.00;;
12112;SDS011;6120;52.250;8.478;2022-10-22T12:08:41;13.50;;;2.65;;
12112;SDS011;6120;52.250;8.478;2022-10-22T12:16:26;6.22;;;2.05;;
12112;SDS011;6120;52.250;8.478;2022-10-22T12:21:52;17.10;;;2.38;;
12112;SDS011;6120;52.250;8.478;2022-10-22T12:24:22;9.55;;;2.55;;
12112;SDS011;6120;52.250;8.478;2022-10-22T12:26:49;5.28;;;2.22;;
12112;SDS011;6120;52.250;8.478;2022-10-22T12:29:19;6.32;;;1.67;;
12112;SDS011;6120;52.250;8.478;2022-10-22T12:31:48;10.45;;;2.13;;
12112;SDS011;6120;52.250;8.478;2022-10-22T12:34:16;9.82;;;2.00;;
12112;SDS011;6120;52.250;8.478;2022-10-22T12:36:45;5.57;;;1.60;;
12112;SDS011;6120;52.250;8.478;2022-10-22T12:41:44;9.15;;;1.58;;
12112;SDS011;6120;52.250;8.478;2022-10-22T12:44:12;12.27;;;2.00;;
12112;SDS011;6120;52.250;8.478;2022-10-22T12:46:40;5.68;;;1.48;;
12112;SDS011;6120;52.250;8.478;2022-10-22T12:49:42;4.07;;;1.38;;
12112;SDS011;6120;52.250;8.478;2022-10-22T12:52:05;6.90;;;1.77;;
12112;SDS011;6120;52.250;8.478;2022-10-22T12:54:38;9.40;;;2.50;;
12112;SDS011;6120;52.250;8.478;2022-10-22T12:57:05;5.30;;;1.50;;
12112;SDS011;6120;52.250;8.478;2022-10-22T12:59:36;5.80;;;1.60;;
12112;SDS011;6120;52.250;8.478;2022-10-22T13:02:21;9.48;;;1.73;;
12112;SDS011;6120;52.250;8.478;2022-10-22T13:07:42;3.97;;;1.17;;
12112;SDS011;6120;52.250;8.478;2022-10-22T13:10:14;6.55;;;1.55;;
12112;SDS011;6120;52.250;8.478;2022-10-22T13:12:50;6.28;;;1.55;;
12112;SDS011;6120;52.250;8.478;2022-10-22T13:18:15;4.68;;;1.40;;
12112;SDS011;6120;52.250;8.478;2022-10-22T13:20:51;5.65;;;1.40;;
12112;SDS011;6120;52.250;8.478;2022-10-22T13:23:23;7.97;;;1.73;;
12112;SDS011;6120;52.250;8.478;2022-10-22T13:26:11;7.32;;;1.58;;
12112;SDS011;6120;52.250;8.478;2022-10-22T13:28:39;6.60;;;1.48;;
12112;SDS011;6120;52.250;8.478;2022-10-22T13:31:08;12.80;;;1.48;;
12112;SDS011;6120;52.250;8.478;2022-10-22T13:33:44;9.68;;;1.90;;
12112;SDS011;6120;52.250;8.478;2022-10-22T13:36:13;9.77;;;1.30;;
12112;SDS011;6120;52.250;8.478;2022-10-22T13:38:41;5.40;;;1.65;;
12112;SDS011;6120;52.250;8.478;2022-10-22T13:41:27;6.50;;;1.38;;
12112;SDS011;6120;52.250;8.478;2022-10-22T13:43:58;7.07;;;1.80;;
12112;SDS011;6120;52.250;8.478;2022-10-22T13:46:25;3.38;;;1.60;;
12112;SDS011;6120;52.250;8.478;2022-10-22T13:48:54;4.15;;;1.80;;
12112;SDS011;6120;52.250;8.478;2022-10-22T13:51:23;7.18;;;2.38;;
12112;SDS011;6120;52.250;8.478;2022-10-22T13:53:55;13.13;;;2.05;;
12112;SDS011;6120;52.250;8.478;2022-10-22T13:56:22;5.38;;;1.67;;
12112;SDS011;6120;52.250;8.478;2022-10-22T13:58:49;10.55;;;2.63;;
12112;SDS011;6120;52.250;8.478;2022-10-22T14:01:20;6.68;;;1.90;;
12112;SDS011;6120;52.250;8.478;2022-10-22T14:03:51;4.78;;;1.90;;
12112;SDS011;6120;52.250;8.478;2022-10-22T14:06:21;8.35;;;2.00;;
12112;SDS011;6120;52.250;8.478;2022-10-22T14:08:54;7.78;;;3.72;;
12112;SDS011;6120;52.250;8.478;2022-10-22T14:11:24;8.10;;;2.13;;
12112;SDS011;6120;52.250;8.478;2022-10-22T14:13:56;5.75;;;2.13;;
12112;SDS011;6120;52.250;8.478;2022-10-22T14:16:25;7.40;;;2.30;;
12112;SDS011;6120;52.250;8.478;2022-10-22T14:18:54;15.27;;;2.58;;
12112;SDS011;6120;52.250;8.478;2022-10-22T14:21:21;8.45;;;2.40;;
12112;SDS011;6120;52.250;8.478;2022-10-22T14:23:47;7.00;;;2.60;;
12112;SDS011;6120;52.250;8.478;2022-10-22T14:26:23;6.28;;;2.10;;
12112;SDS011;6120;52.250;8.478;2022-10-22T14:28:53;6.25;;;2.42;;
12112;SDS011;6120;52.250;8.478;2022-10-22T14:31:38;5.85;;;2.13;;
12112;SDS011;6120;52.250;8.478;2022-10-22T14:34:05;3.92;;;2.00;;
12112;SDS011;6120;52.250;8.478;2022-10-22T14:36:32;4.75;;;2.15;;
12112;SDS011;6120;52.250;8.478;2022-10-22T14:38:58;6.13;;;2.72;;
12112;SDS011;6120;52.250;8.478;2022-10-22T14:41:25;11.07;;;3.10;;
12112;SDS011;6120;52.250;8.478;2022-10-22T14:43:53;4.47;;;2.60;;
12112;SDS011;6120;52.250;8.478;2022-10-22T14:46:23;10.85;;;3.40;;
12112;SDS011;6120;52.250;8.478;2022-10-22T14:48:49;8.15;;;3.05;;
12112;SDS011;6120;52.250;8.478;2022-10-22T14:51:17;7.90;;;3.10;;
12112;SDS011;6120;52.250;8.478;2022-10-22T14:53:45;7.78;;;3.17;;
12112;SDS011;6120;52.250;8.478;2022-10-22T14:56:13;5.43;;;2.58;;
12112;SDS011;6120;52.250;8.478;2022-10-22T14:58:41;7.00;;;2.95;;
12112;SDS011;6120;52.250;8.478;2022-10-22T15:01:08;7.90;;;2.92;;
12112;SDS011;6120;52.250;8.478;2022-10-22T15:03:35;12.20;;;3.20;;
12112;SDS011;6120;52.250;8.478;2022-10-22T15:06:01;7.35;;;3.00;;
12112;SDS011;6120;52.250;8.478;2022-10-22T15:08:28;8.07;;;3.50;;
12112;SDS011;6120;52.250;8.478;2022-10-22T15:10:56;7.70;;;3.78;;
12112;SDS011;6120;52.250;8.478;2022-10-22T15:13:27;7.70;;;3.17;;
12112;SDS011;6120;52.250;8.478;2022-10-22T15:15:55;6.85;;;3.25;;
12112;SDS011;6120;52.250;8.478;2022-10-22T15:18:22;13.07;;;3.38;;
12112;SDS011;6120;52.250;8.478;2022-10-22T15:21:12;5.13;;;2.63;;
12112;SDS011;6120;52.250;8.478;2022-10-22T15:23:40;8.50;;;2.80;;
12112;SDS011;6120;52.250;8.478;2022-10-22T15:26:07;8.13;;;3.17;;
12112;SDS011;6120;52.250;8.478;2022-10-22T15:28:35;9.07;;;3.20;;
12112;SDS011;6120;52.250;8.478;2022-10-22T15:31:03;11.77;;;3.08;;
12112;SDS011;6120;52.250;8.478;2022-10-22T15:33:30;10.75;;;3.20;;
12112;SDS011;6120;52.250;8.478;2022-10-22T15:35:56;9.95;;;2.95;;
12112;SDS011;6120;52.250;8.478;2022-10-22T15:38:27;8.23;;;2.65;;
12112;SDS011;6120;52.250;8.478;2022-10-22T15:41:02;8.40;;;2.85;;
12112;SDS011;6120;52.250;8.478;2022-10-22T15:43:31;5.65;;;3.25;;
12112;SDS011;6120;52.250;8.478;2022-10-22T15:46:09;8.23;;;3.13;;
12112;SDS011;6120;52.250;8.478;2022-10-22T15:48:40;9.45;;;3.92;;
12112;SDS011;6120;52.250;8.478;2022-10-22T15:51:08;9.45;;;2.55;;
12112;SDS011;6120;52.250;8.478;2022-10-22T15:53:39;7.05;;;2.78;;
12112;SDS011;6120;52.250;8.478;2022-10-22T15:56:06;4.40;;;2.20;;
12112;SDS011;6120;52.250;8.478;2022-10-22T15:58:34;5.95;;;2.42;;
12112;SDS011;6120;52.250;8.478;2022-10-22T16:01:07;4.55;;;2.10;;
12112;SDS011;6120;52.250;8.478;2022-10-22T16:03:38;6.88;;;2.55;;
12112;SDS011;6120;52.250;8.478;2022-10-22T16:06:06;6.38;;;2.60;;
12112;SDS011;6120;52.250;8.478;2022-10-22T16:08:35;13.90;;;3.17;;
12112;SDS011;6120;52.250;8.478;2022-10-22T16:11:02;7.53;;;2.70;;
12112;SDS011;6120;52.250;8.478;2022-10-22T16:13:28;6.78;;;2.50;;
12112;SDS011;6120;52.250;8.478;2022-10-22T16:15:56;8.43;;;3.65;;
12112;SDS011;6120;52.250;8.478;2022-10-22T16:18:22;12.88;;;3.03;;
12112;SDS011;6120;52.250;8.478;2022-10-22T16:20:49;9.50;;;2.63;;
12112;SDS011;6120;52.250;8.478;2022-10-22T16:23:15;12.30;;;2.55;;
12112;SDS011;6120;52.250;8.478;2022-10-22T16:25:44;7.15;;;2.10;;
12112;SDS011;6120;52.250;8.478;2022-10-22T16:28:11;6.28;;;2.05;;
12112;SDS011;6120;52.250;8.478;2022-10-22T16:30:38;5.30;;;2.33;;
12112;SDS011;6120;52.250;8.478;2022-10-22T16:33:05;3.92;;;2.05;;
12112;SDS011;6120;52.250;8.478;2022-10-22T16:35:33;9.55;;;2.55;;
12112;SDS011;6120;52.250;8.478;2022-10-22T16:37:59;5.05;;;2.08;;
12112;SDS011;6120;52.250;8.478;2022-10-22T16:40:26;6.70;;;2.40;;
12112;SDS011;6120;52.250;8.478;2022-10-22T16:42:54;7.43;;;2.20;;
12112;SDS011;6120;52.250;8.478;2022-10-22T16:45:20;7.95;;;2.10;;
12112;SDS011;6120;52.250;8.478;2022-10-22T16:47:47;9.13;;;3.65;;
12112;SDS011;6120;52.250;8.478;2022-10-22T16:50:14;4.43;;;2.42;;
12112;SDS011;6120;52.250;8.478;2022-10-22T16:52:41;4.13;;;2.00;;
12112;SDS011;6120;52.250;8.478;2022-10-22T16:55:07;10.43;;;1.95;;
12112;SDS011;6120;52.250;8.478;2022-10-22T16:57:34;4.28;;;2.00;;
12112;SDS011;6120;52.250;8.478;2022-10-22T17:00:02;5.82;;;1.95;;
12112;SDS011;6120;52.250;8.478;2022-10-22T17:02:30;4.35;;;1.83;;
12112;SDS011;6120;52.250;8.478;2022-10-22T17:04:56;3.65;;;2.00;;
12112;SDS011;6120;52.250;8.478;2022-10-22T17:07:23;7.18;;;2.03;;
12112;SDS011;6120;52.250;8.478;2022-10-22T17:09:49;3.70;;;2.03;;
12112;SDS011;6120;52.250;8.478;2022-10-22T17:12:16;7.18;;;1.75;;
12112;SDS011;6120;52.250;8.478;2022-10-22T17:14:43;4.38;;;1.73;;
12112;SDS011;6120;52.250;8.478;2022-10-22T17:17:09;4.85;;;2.28;;
12112;SDS011;6120;52.250;8.478;2022-10-22T17:19:36;8.60;;;3.55;;
12112;SDS011;6120;52.250;8.478;2022-10-22T17:22:04;13.50;;;4.07;;